Time;durP1;ratioP1;P1;durP2;ratioP2;P2;SDS_P1;SDS_P2;PMS_P1;PMS_P2;Temp;Humidity;BMP_temperature;BMP_pressure;BME280_temperature;BME280_humidity;BME280_pressure;Samples;Min_cycle;Max_cycle;Signal;HPM_P1;HPM_P2
2023/12/12 00:01:08;;;;;;;;;;;21.70;37.40;;;;;;5016586;28;19976;-48
2023/12/12 00:03:35;;;;;;;;;;;21.70;37.40;;;;;;5016207;28;20379;-52
2023/12/12 00:06:02;;;;;;;;;;;21.70;37.40;;;;;;5015947;28;19995;-51
2023/12/12 00:08:29;;;;;;;;;;;21.70;37.40;;;;;;5014990;28;19961;-48
2023/12/12 00:10:56;;;;;;;;;;;21.70;37.40;;;;;;5016010;28;20423;-49
2023/12/12 00:13:23;;;;;;;;;;;21.70;37.30;;;;;;5016322;28;19932;-48
2023/12/12 00:15:50;;;;;;;;;;;21.70;37.40;;;;;;5016100;28;20397;-48
2023/12/12 00:18:17;;;;;;;;;;;21.70;37.30;;;;;;5016280;28;19926;-49
2023/12/12 00:20:44;;;;;;;;;;;21.70;37.30;;;;;;5015923;28;19930;-48
2023/12/12 00:23:11;;;;;;;;;;;21.70;37.30;;;;;;5015791;28;20383;-51
2023/12/12 00:25:38;;;;;;;;;;;21.70;37.30;;;;;;5015631;28;19969;-50
2023/12/12 00:28:05;;;;;;;;;;;21.70;37.30;;;;;;5016033;28;19932;-48
2023/12/12 00:30:32;;;;;;;;;;;21.70;37.20;;;;;;5016081;28;19948;-47
2023/12/12 00:32:59;;;;;;;;;;;21.70;37.20;;;;;;5015621;28;20379;-48
2023/12/12 00:35:26;;;;;;;;;;;21.70;37.20;;;;;;4998181;28;20024;-48
2023/12/12 00:37:53;;;;;;;;;;;21.70;37.20;;;;;;5015064;28;20023;-53
2023/12/12 00:40:20;;;;;;;;;;;21.70;37.20;;;;;;5015583;28;19930;-47
2023/12/12 00:42:47;;;;;;;;;;;21.70;37.20;;;;;;5015422;28;20020;-48
2023/12/12 00:45:14;;;;;;;;;;;21.60;37.20;;;;;;5015768;28;19925;-49
2023/12/12 00:47:41;;;;;;;;;;;21.60;37.20;;;;;;5015410;28;20028;-50
2023/12/12 00:50:09;;;;;;;;;;;21.60;37.20;;;;;;5015776;28;20040;-48
2023/12/12 00:52:36;;;;;;;;;;;21.60;37.20;;;;;;4998346;28;20020;-49
2023/12/12 00:55:03;;;;;;;;;;;21.60;37.20;;;;;;5015422;28;19926;-47
2023/12/12 00:57:30;;;;;;;;;;;21.60;37.20;;;;;;5015497;28;19991;-49
2023/12/12 00:59:57;;;;;;;;;;;21.60;37.20;;;;;;5015039;28;19926;-47
2023/12/12 01:02:25;;;;;;;;;;;21.60;37.20;;;;;;5014642;28;19932;-51
2023/12/12 01:04:52;;;;;;;;;;;21.60;37.20;;;;;;5014996;28;19929;-49
2023/12/12 01:07:19;;;;;;;;;;;21.60;37.20;;;;;;5015026;28;19948;-49
2023/12/12 01:09:46;;;;;;;;;;;21.60;37.20;;;;;;4997698;28;19957;-52
2023/12/12 01:12:13;;;;;;;;;;;21.50;37.20;;;;;;5015021;28;20321;-53
2023/12/12 01:14:40;;;;;;;;;;;21.50;37.20;;;;;;5015223;28;20294;-53
2023/12/12 01:17:07;;;;;;;;;;;21.50;37.30;;;;;;5015133;28;19933;-52
2023/12/12 01:19:34;;;;;;;;;;;21.50;37.30;;;;;;5014437;28;20367;-48
2023/12/12 01:22:01;;;;;;;;;;;21.50;37.30;;;;;;5014713;28;19967;-53
2023/12/12 01:24:30;;;;;;;;;;;21.50;37.30;;;;;;5014696;28;19929;-49
2023/12/12 01:26:56;;;;;;;;;;;21.50;37.30;;;;;;5015018;28;19984;-48
2023/12/12 01:29:23;;;;;;;;;;;21.50;37.40;;;;;;5014881;28;20399;-50
2023/12/12 01:31:50;;;;;;;;;;;21.50;37.30;;;;;;5014993;28;20096;-50
2023/12/12 01:34:17;;;;;;;;;;;21.50;37.30;;;;;;5014400;28;19932;-50
2023/12/12 01:36:45;;;;;;;;;;;21.50;37.20;;;;;;5015095;28;19925;-48
2023/12/12 01:39:12;;;;;;;;;;;21.50;37.20;;;;;;5014355;28;19926;-49
2023/12/12 01:41:39;;;;;;;;;;;21.50;37.20;;;;;;5014556;28;20375;-47
2023/12/12 01:44:06;;;;;;;;;;;21.50;37.20;;;;;;5014528;28;20020;-51
2023/12/12 01:46:35;;;;;;;;;;;21.50;37.20;;;;;;5014109;28;20409;-47
2023/12/12 01:49:02;;;;;;;;;;;21.50;37.20;;;;;;5014102;28;19925;-48
2023/12/12 01:51:29;;;;;;;;;;;21.50;37.20;;;;;;5014466;28;19956;-48
2023/12/12 01:53:59;;;;;;;;;;;21.50;37.20;;;;;;5013657;28;20215;-47
2023/12/12 01:56:28;;;;;;;;;;;21.40;37.20;;;;;;5014456;28;20034;-50
2023/12/12 01:58:56;;;;;;;;;;;21.40;37.20;;;;;;4996836;28;19925;-48
2023/12/12 02:01:23;;;;;;;;;;;21.50;37.20;;;;;;5014158;28;19926;-48
2023/12/12 02:03:51;;;;;;;;;;;21.40;37.10;;;;;;5014031;28;19926;-49
2023/12/12 02:06:22;;;;;;;;;;;21.40;37.10;;;;;;5014505;28;19979;-50
2023/12/12 02:08:50;;;;;;;;;;;21.40;37.10;;;;;;5013594;28;19975;-49
2023/12/12 02:11:17;;;;;;;;;;;21.40;37.10;;;;;;5014310;28;19948;-53
2023/12/12 02:13:44;;;;;;;;;;;21.40;37.20;;;;;;5026589;28;20370;-51
2023/12/12 02:16:12;;;;;;;;;;;21.40;37.20;;;;;;5033629;28;20032;-49
2023/12/12 02:18:39;;;;;;;;;;;21.40;37.20;;;;;;5033681;28;19925;-50
2023/12/12 02:21:06;;;;;;;;;;;21.30;37.20;;;;;;5033838;28;19925;-51
2023/12/12 02:23:33;;;;;;;;;;;21.40;37.20;;;;;;5033113;28;20012;-52
2023/12/12 02:26:01;;;;;;;;;;;21.30;37.10;;;;;;5033666;28;19968;-53
2023/12/12 02:28:28;;;;;;;;;;;21.40;37.20;;;;;;5033606;28;19931;-49
2023/12/12 02:30:55;;;;;;;;;;;21.30;37.20;;;;;;5032480;28;19925;-46
2023/12/12 02:33:22;;;;;;;;;;;21.30;37.20;;;;;;5017116;28;19980;-47
2023/12/12 02:35:49;;;;;;;;;;;21.30;37.20;;;;;;5013874;28;19925;-47
2023/12/12 02:38:16;;;;;;;;;;;21.30;37.20;;;;;;5012888;28;19926;-53
2023/12/12 02:40:43;;;;;;;;;;;21.30;37.20;;;;;;5013532;28;19926;-46
2023/12/12 02:43:10;;;;;;;;;;;21.30;37.30;;;;;;5013214;28;20481;-49
2023/12/12 02:45:37;;;;;;;;;;;21.30;37.30;;;;;;5013315;28;20292;-47
2023/12/12 02:48:04;;;;;;;;;;;21.30;37.20;;;;;;5013410;28;20458;-46
2023/12/12 02:50:31;;;;;;;;;;;21.30;37.20;;;;;;5013713;28;19932;-49
2023/12/12 02:52:58;;;;;;;;;;;21.30;37.20;;;;;;5013360;28;19925;-52
2023/12/12 02:55:25;;;;;;;;;;;21.30;37.20;;;;;;5013991;28;19948;-52
2023/12/12 02:57:52;;;;;;;;;;;21.30;37.20;;;;;;5012350;28;20367;-52
2023/12/12 03:00:19;;;;;;;;;;;21.30;37.10;;;;;;4993254;28;19938;-52
2023/12/12 03:02:46;;;;;;;;;;;21.30;37.10;;;;;;4993789;28;20394;-50
2023/12/12 03:05:13;;;;;;;;;;;21.30;37.10;;;;;;4993590;28;19933;-52
2023/12/12 03:07:40;;;;;;;;;;;21.30;37.10;;;;;;4993773;28;19933;-52
2023/12/12 03:10:07;;;;;;;;;;;21.30;37.10;;;;;;4993593;28;19936;-51
2023/12/12 03:12:34;;;;;;;;;;;21.30;37.10;;;;;;4993172;28;19926;-46
2023/12/12 03:15:01;;;;;;;;;;;21.30;37.10;;;;;;4993616;28;19926;-53
2023/12/12 03:17:28;;;;;;;;;;;21.20;37.10;;;;;;4993697;28;19926;-51
2023/12/12 03:19:56;;;;;;;;;;;21.20;37.10;;;;;;4999460;28;19933;-48
2023/12/12 03:22:23;;;;;;;;;;;21.20;37.10;;;;;;5010380;28;19951;-48
2023/12/12 03:24:50;;;;;;;;;;;21.30;37.20;;;;;;5013035;28;19929;-49
2023/12/12 03:27:17;;;;;;;;;;;21.20;37.10;;;;;;5012834;28;19925;-51
2023/12/12 03:29:44;;;;;;;;;;;21.20;37.10;;;;;;5013163;28;20294;-49
2023/12/12 03:32:11;;;;;;;;;;;21.20;37.10;;;;;;5030793;28;19976;-49
2023/12/12 03:34:38;;;;;;;;;;;21.20;37.10;;;;;;5032522;28;19933;-46
2023/12/12 03:37:05;;;;;;;;;;;21.20;37.10;;;;;;5032689;28;19925;-49
2023/12/12 03:39:32;;;;;;;;;;;21.20;37.10;;;;;;5032981;28;19925;-51
2023/12/12 03:41:59;;;;;;;;;;;21.20;37.10;;;;;;5034428;28;19971;-49
2023/12/12 03:44:26;;;;;;;;;;;21.20;37.10;;;;;;5036689;28;20382;-47
2023/12/12 03:46:53;;;;;;;;;;;21.20;37.10;;;;;;5036659;28;19929;-47
2023/12/12 03:49:20;;;;;;;;;;;21.20;37.20;;;;;;5036127;28;19931;-49
2023/12/12 03:51:47;;;;;;;;;;;21.20;37.20;;;;;;5036338;28;19953;-47
2023/12/12 03:54:14;;;;;;;;;;;21.20;37.20;;;;;;5018976;28;19971;-48
2023/12/12 03:56:41;;;;;;;;;;;21.10;37.20;;;;;;5018879;28;19925;-47
2023/12/12 03:59:08;;;;;;;;;;;21.10;37.20;;;;;;5035905;28;19929;-47
2023/12/12 04:01:35;;;;;;;;;;;21.20;37.20;;;;;;5036413;28;19926;-47
2023/12/12 04:04:02;;;;;;;;;;;21.20;37.10;;;;;;5035785;28;20417;-46
2023/12/12 04:06:29;;;;;;;;;;;21.10;37.10;;;;;;5036105;28;19983;-48
2023/12/12 04:08:56;;;;;;;;;;;21.10;37.10;;;;;;5035628;28;20025;-48
2023/12/12 04:11:23;;;;;;;;;;;21.10;37.00;;;;;;5035773;28;20297;-52
2023/12/12 04:13:51;;;;;;;;;;;21.10;37.00;;;;;;4996809;28;19926;-48
2023/12/12 04:16:18;;;;;;;;;;;21.20;37.10;;;;;;5002316;28;20405;-50
2023/12/12 04:18:45;;;;;;;;;;;21.20;37.00;;;;;;5016137;28;20011;-48
2023/12/12 04:21:12;;;;;;;;;;;21.10;37.00;;;;;;5015850;28;20020;-53
2023/12/12 04:23:42;;;;;;;;;;;21.20;37.00;;;;;;5015899;28;20012;-48
2023/12/12 04:26:10;;;;;;;;;;;21.20;37.10;;;;;;5015601;28;19925;-53
2023/12/12 04:28:37;;;;;;;;;;;21.10;37.00;;;;;;5008483;28;19936;-51
2023/12/12 04:31:04;;;;;;;;;;;21.10;37.00;;;;;;5010596;28;19932;-48
2023/12/12 04:33:31;;;;;;;;;;;21.10;37.00;;;;;;5018313;28;19925;-53
2023/12/12 04:35:59;;;;;;;;;;;21.10;37.00;;;;;;5035428;28;19935;-52
2023/12/12 04:38:26;;;;;;;;;;;21.10;36.90;;;;;;5015001;28;19931;-52
2023/12/12 04:40:53;;;;;;;;;;;21.10;36.60;;;;;;5015608;28;20421;-52
2023/12/12 04:43:20;;;;;;;;;;;21.10;36.40;;;;;;5013665;28;19925;-51
2023/12/12 04:45:47;;;;;;;;;;;21.20;36.30;;;;;;5009425;28;19929;-51
2023/12/12 04:48:15;;;;;;;;;;;21.20;36.30;;;;;;4988672;28;19925;-50
2023/12/12 04:50:42;;;;;;;;;;;21.20;36.20;;;;;;5006374;28;19936;-52
2023/12/12 04:53:09;;;;;;;;;;;21.20;36.20;;;;;;5004311;28;19934;-53
2023/12/12 04:55:36;;;;;;;;;;;21.20;36.20;;;;;;5007858;28;20007;-53
2023/12/12 04:58:03;;;;;;;;;;;21.10;36.20;;;;;;5032047;28;19932;-49
2023/12/12 05:00:30;;;;;;;;;;;21.10;36.20;;;;;;5013964;28;19926;-54
2023/12/12 05:02:57;;;;;;;;;;;21.10;36.20;;;;;;5015413;28;19973;-50
2023/12/12 05:05:24;;;;;;;;;;;21.10;36.30;;;;;;5014899;28;19925;-51
2023/12/12 05:07:51;;;;;;;;;;;21.10;36.30;;;;;;5015122;28;19925;-53
2023/12/12 05:10:18;;;;;;;;;;;21.10;36.30;;;;;;5007483;28;19965;-51
2023/12/12 05:12:45;;;;;;;;;;;21.10;36.20;;;;;;5006290;28;20319;-52
2023/12/12 05:15:12;;;;;;;;;;;21.20;36.30;;;;;;5004266;28;19980;-50
2023/12/12 05:17:39;;;;;;;;;;;21.20;36.30;;;;;;5008496;28;19929;-50
2023/12/12 05:20:09;;;;;;;;;;;21.20;36.20;;;;;;5014573;28;19925;-48
2023/12/12 05:22:36;;;;;;;;;;;21.20;36.10;;;;;;5003255;28;19964;-50
2023/12/12 05:25:05;;;;;;;;;;;21.20;36.10;;;;;;4994965;28;20380;-51
2023/12/12 05:27:32;;;;;;;;;;;21.20;36.10;;;;;;4995252;28;20365;-49
2023/12/12 05:29:59;;;;;;;;;;;21.20;36.10;;;;;;5012856;28;19929;-48
2023/12/12 05:32:26;;;;;;;;;;;21.20;36.10;;;;;;5015033;28;20012;-47
2023/12/12 05:34:53;;;;;;;;;;;21.20;36.10;;;;;;5019743;28;19929;-49
2023/12/12 05:37:20;;;;;;;;;;;21.20;36.00;;;;;;5034433;28;19932;-52
2023/12/12 05:39:47;;;;;;;;;;;21.20;36.60;;;;;;5034086;28;20374;-51
2023/12/12 05:42:14;;;;;;;;;;;21.30;36.10;;;;;;5033085;28;19929;-51
2023/12/12 05:44:41;;;;;;;;;;;21.30;36.10;;;;;;5014455;28;20422;-48
2023/12/12 05:47:09;;;;;;;;;;;21.30;36.10;;;;;;5033738;28;19929;-53
2023/12/12 05:49:36;;;;;;;;;;;21.30;36.00;;;;;;5034051;28;19925;-47
2023/12/12 05:52:04;;;;;;;;;;;21.30;36.00;;;;;;5034349;28;19925;-53
2023/12/12 05:54:31;;;;;;;;;;;21.30;35.90;;;;;;5034131;28;20011;-53
2023/12/12 05:56:59;;;;;;;;;;;21.30;35.90;;;;;;5033865;28;20019;-53
2023/12/12 05:59:26;;;;;;;;;;;21.40;35.90;;;;;;5033501;28;19925;-53
2023/12/12 06:01:53;;;;;;;;;;;21.40;35.90;;;;;;5023138;28;19969;-52
2023/12/12 06:04:20;;;;;;;;;;;21.40;35.80;;;;;;5011914;28;19925;-52
2023/12/12 06:06:47;;;;;;;;;;;21.40;35.80;;;;;;5012479;28;20397;-47
2023/12/12 06:09:16;;;;;;;;;;;21.40;35.70;;;;;;5000402;28;19969;-51
2023/12/12 06:11:44;;;;;;;;;;;21.50;35.70;;;;;;5010812;28;19932;-52
2023/12/12 06:14:12;;;;;;;;;;;21.50;36.30;;;;;;4996346;28;19948;-49
2023/12/12 06:16:39;;;;;;;;;;;21.50;35.70;;;;;;5001118;28;19930;-50
2023/12/12 06:19:06;;;;;;;;;;;21.50;35.60;;;;;;5003892;28;19925;-49
2023/12/12 06:21:33;;;;;;;;;;;21.50;35.60;;;;;;5003438;28;19933;-52
2023/12/12 06:24:01;;;;;;;;;;;21.60;35.80;;;;;;5005444;28;20008;-52
2023/12/12 06:26:29;;;;;;;;;;;21.60;36.40;;;;;;4990399;28;20291;-54
2023/12/12 06:28:56;;;;;;;;;;;21.60;36.60;;;;;;5001947;28;19951;-52
2023/12/12 06:31:23;;;;;;;;;;;21.70;36.70;;;;;;5000077;28;19968;-52
2023/12/12 06:33:51;;;;;;;;;;;21.70;36.90;;;;;;4998306;28;19933;-53
2023/12/12 06:36:18;;;;;;;;;;;21.80;36.80;;;;;;4999456;28;19944;-52
2023/12/12 06:38:45;;;;;;;;;;;21.80;36.60;;;;;;4998585;28;19973;-53
2023/12/12 06:41:12;;;;;;;;;;;21.80;36.70;;;;;;4993137;28;20009;-51
2023/12/12 06:43:39;;;;;;;;;;;21.80;36.90;;;;;;5006601;28;20354;-53
2023/12/12 06:46:07;;;;;;;;;;;21.90;36.90;;;;;;5006766;28;20425;-54
2023/12/12 06:48:37;;;;;;;;;;;21.90;36.70;;;;;;5006598;28;19972;-48
2023/12/12 06:51:04;;;;;;;;;;;21.90;36.70;;;;;;5002607;28;19925;-51
2023/12/12 06:53:31;;;;;;;;;;;21.90;36.70;;;;;;5007256;28;19925;-50
2023/12/12 06:55:58;;;;;;;;;;;22.00;36.50;;;;;;5000817;28;19937;-52
2023/12/12 06:58:25;;;;;;;;;;;22.00;36.50;;;;;;5002314;28;20416;-51
2023/12/12 07:00:53;;;;;;;;;;;22.00;36.40;;;;;;4999519;28;19930;-53
2023/12/12 07:03:21;;;;;;;;;;;22.00;36.50;;;;;;4996088;28;19929;-53
2023/12/12 07:05:52;;;;;;;;;;;22.10;36.60;;;;;;4999090;28;20421;-50
2023/12/12 07:08:20;;;;;;;;;;;22.10;36.50;;;;;;4996227;28;20018;-55
2023/12/12 07:10:52;;;;;;;;;;;22.10;36.50;;;;;;4996830;28;20101;-58
2023/12/12 07:13:20;;;;;;;;;;;22.10;36.70;;;;;;4996136;28;19930;-51
2023/12/12 07:15:47;;;;;;;;;;;22.20;36.80;;;;;;4998062;28;19952;-53
2023/12/12 07:18:14;;;;;;;;;;;22.20;36.60;;;;;;5006517;28;20447;-53
2023/12/12 07:20:41;;;;;;;;;;;22.20;36.30;;;;;;5001435;28;19937;-55
2023/12/12 07:23:08;;;;;;;;;;;22.20;36.20;;;;;;5004554;28;20041;-55
2023/12/12 07:25:36;;;;;;;;;;;22.20;36.10;;;;;;5004552;28;19933;-51
2023/12/12 07:28:03;;;;;;;;;;;22.20;36.20;;;;;;4987434;28;20352;-54
2023/12/12 07:30:32;;;;;;;;;;;22.20;36.30;;;;;;5000433;28;20197;-54
2023/12/12 07:32:59;;;;;;;;;;;22.20;36.30;;;;;;4986920;28;19933;-53
2023/12/12 07:35:26;;;;;;;;;;;22.20;36.30;;;;;;5003938;28;20377;-53
2023/12/12 07:37:53;;;;;;;;;;;22.30;36.30;;;;;;5004594;28;20019;-52
2023/12/12 07:40:20;;;;;;;;;;;22.30;36.30;;;;;;5003857;28;20004;-47
2023/12/12 07:42:47;;;;;;;;;;;22.30;36.10;;;;;;5001815;28;19935;-52
2023/12/12 07:45:14;;;;;;;;;;;22.30;36.10;;;;;;5002142;28;20010;-50
2023/12/12 07:47:41;;;;;;;;;;;22.30;35.90;;;;;;4985284;28;19937;-51
2023/12/12 07:50:10;;;;;;;;;;;22.40;35.80;;;;;;4998095;28;20092;-51
2023/12/12 07:52:37;;;;;;;;;;;22.40;35.90;;;;;;5006730;28;19980;-51
2023/12/12 07:55:05;;;;;;;;;;;22.40;35.90;;;;;;5001434;28;19944;-53
2023/12/12 07:57:33;;;;;;;;;;;22.40;35.80;;;;;;5002812;28;19933;-53
2023/12/12 08:00:00;;;;;;;;;;;22.40;35.80;;;;;;5005534;28;19925;-51
2023/12/12 08:02:27;;;;;;;;;;;22.40;36.00;;;;;;5000665;28;19925;-52
2023/12/12 08:04:54;;;;;;;;;;;22.40;36.10;;;;;;5004231;28;20338;-53
2023/12/12 08:07:22;;;;;;;;;;;22.40;36.10;;;;;;5005140;28;19934;-49
2023/12/12 08:09:50;;;;;;;;;;;22.40;36.00;;;;;;5000162;28;20048;-54
2023/12/12 08:12:17;;;;;;;;;;;22.50;36.10;;;;;;4984237;28;19925;-53
2023/12/12 08:14:44;;;;;;;;;;;22.50;36.40;;;;;;4999572;28;19926;-54
2023/12/12 08:17:14;;;;;;;;;;;22.50;36.30;;;;;;5002381;28;19936;-51
2023/12/12 08:19:41;;;;;;;;;;;22.50;36.30;;;;;;4998412;28;19932;-52
2023/12/12 08:22:09;;;;;;;;;;;22.50;36.20;;;;;;5001548;28;20422;-54
2023/12/12 08:24:36;;;;;;;;;;;22.60;36.20;;;;;;4998742;28;19929;-54
2023/12/12 08:27:03;;;;;;;;;;;22.50;36.10;;;;;;5000489;28;19935;-53
2023/12/12 08:29:30;;;;;;;;;;;22.50;36.20;;;;;;4999667;28;19939;-55
2023/12/12 08:31:58;;;;;;;;;;;22.50;36.40;;;;;;5005746;28;19952;-48
2023/12/12 08:34:25;;;;;;;;;;;22.60;36.50;;;;;;5005018;28;19929;-50
2023/12/12 08:36:52;;;;;;;;;;;22.60;36.50;;;;;;4985681;28;20299;-55
2023/12/12 08:39:19;;;;;;;;;;;22.60;36.50;;;;;;4997703;28;20324;-52
2023/12/12 08:41:47;;;;;;;;;;;22.70;36.60;;;;;;5000400;28;19984;-51
2023/12/12 08:44:13;;;;;;;;;;;22.70;36.60;;;;;;4984528;28;19929;-54
2023/12/12 08:46:43;;;;;;;;;;;22.70;36.60;;;;;;5007358;28;19936;-53
2023/12/12 08:49:11;;;;;;;;;;;22.80;36.50;;;;;;5008864;28;19939;-52
2023/12/12 08:51:39;;;;;;;;;;;22.80;36.60;;;;;;5003445;28;20303;-54
2023/12/12 08:54:06;;;;;;;;;;;22.80;36.60;;;;;;5006691;28;20016;-52
2023/12/12 08:56:33;;;;;;;;;;;22.90;36.70;;;;;;5008174;28;21618;-52
2023/12/12 08:59:00;;;;;;;;;;;22.90;36.60;;;;;;5007929;28;19933;-53
2023/12/12 09:01:27;;;;;;;;;;;22.90;36.40;;;;;;5004535;28;19929;-52
2023/12/12 09:03:54;;;;;;;;;;;22.90;36.20;;;;;;5000476;28;19934;-53
2023/12/12 09:06:22;;;;;;;;;;;22.90;36.10;;;;;;5004628;28;19949;-54
2023/12/12 09:08:49;;;;;;;;;;;22.90;36.00;;;;;;5003132;28;19964;-55
2023/12/12 09:11:16;;;;;;;;;;;23.00;36.00;;;;;;5003740;28;20036;-54
2023/12/12 09:13:43;;;;;;;;;;;23.00;35.80;;;;;;5001530;28;20007;-53
2023/12/12 09:16:10;;;;;;;;;;;23.00;35.80;;;;;;5000714;28;19933;-53
2023/12/12 09:18:38;;;;;;;;;;;23.00;35.70;;;;;;5002632;28;19929;-52
2023/12/12 09:21:06;;;;;;;;;;;23.00;35.70;;;;;;5008264;28;19926;-52
2023/12/12 09:23:34;;;;;;;;;;;23.00;35.70;;;;;;4998735;28;19959;-55
2023/12/12 09:26:01;;;;;;;;;;;23.00;35.70;;;;;;5003626;28;19933;-53
2023/12/12 09:28:28;;;;;;;;;;;23.00;35.60;;;;;;4998103;28;21320;-54
2023/12/12 09:30:55;;;;;;;;;;;23.00;35.60;;;;;;4993681;28;19941;-55
2023/12/12 09:33:23;;;;;;;;;;;23.00;35.50;;;;;;4998391;28;20292;-55
2023/12/12 09:35:50;;;;;;;;;;;23.00;35.50;;;;;;4976793;28;21218;-53
2023/12/12 09:38:17;;;;;;;;;;;23.00;36.10;;;;;;5000969;28;19941;-51
2023/12/12 09:40:44;;;;;;;;;;;23.00;35.60;;;;;;4995489;28;20044;-54
2023/12/12 09:43:12;;;;;;;;;;;23.00;35.60;;;;;;4997871;28;20394;-58
2023/12/12 09:45:43;;;;;;;;;;;23.00;35.60;;;;;;4999923;28;19933;-55
2023/12/12 09:48:10;;;;;;;;;;;23.00;35.60;;;;;;4999142;28;19926;-54
2023/12/12 09:50:37;;;;;;;;;;;23.10;35.70;;;;;;5000957;28;19925;-62
2023/12/12 09:53:04;;;;;;;;;;;23.10;35.60;;;;;;5004899;28;19926;-54
2023/12/12 09:55:32;;;;;;;;;;;23.10;35.90;;;;;;5002278;28;20010;-55
2023/12/12 09:57:59;;;;;;;;;;;23.10;36.00;;;;;;5003956;28;19934;-51
2023/12/12 10:00:26;;;;;;;;;;;23.10;35.90;;;;;;5001535;28;20310;-55
2023/12/12 10:02:57;;;;;;;;;;;23.10;35.80;;;;;;5003587;28;20378;-53
2023/12/12 10:05:27;;;;;;;;;;;23.10;35.80;;;;;;4999687;28;19926;-54
2023/12/12 10:07:55;;;;;;;;;;;23.20;35.80;;;;;;5004360;28;19926;-54
2023/12/12 10:10:31;;;;;;;;;;;23.20;35.80;;;;;;5000242;28;20310;-55
2023/12/12 10:12:58;;;;;;;;;;;23.20;35.70;;;;;;5000829;28;19934;-51
2023/12/12 10:15:26;;;;;;;;;;;23.20;35.70;;;;;;5009848;28;19944;-52
2023/12/12 10:17:56;;;;;;;;;;;23.20;35.70;;;;;;4997242;28;19929;-51
2023/12/12 10:20:28;;;;;;;;;;;23.30;35.70;;;;;;4995846;28;19929;-52
2023/12/12 10:23:02;;;;;;;;;;;23.20;35.60;;;;;;4996489;28;20017;-53
2023/12/12 10:25:30;;;;;;;;;;;23.30;35.60;;;;;;5000466;28;20310;-51
2023/12/12 10:27:57;;;;;;;;;;;23.30;35.60;;;;;;5001977;28;20035;-52
2023/12/12 10:30:26;;;;;;;;;;;23.30;35.60;;;;;;5001742;28;19938;-50
2023/12/12 10:32:53;;;;;;;;;;;23.30;35.60;;;;;;4997787;28;19956;-49
2023/12/12 10:35:24;;;;;;;;;;;23.30;35.60;;;;;;5001013;28;20441;-55
2023/12/12 10:37:52;;;;;;;;;;;23.30;35.70;;;;;;5002123;28;20027;-51
2023/12/12 10:40:24;;;;;;;;;;;23.30;35.70;;;;;;4973030;28;19930;-54
2023/12/12 10:42:51;;;;;;;;;;;23.30;35.70;;;;;;5002927;28;19935;-50
2023/12/12 10:45:20;;;;;;;;;;;23.30;35.70;;;;;;5006587;28;20294;-51
2023/12/12 10:47:49;;;;;;;;;;;23.30;35.70;;;;;;5004119;28;19934;-53
2023/12/12 10:50:17;;;;;;;;;;;23.30;35.70;;;;;;4989130;28;20383;-53
2023/12/12 10:52:45;;;;;;;;;;;23.40;35.70;;;;;;4998979;28;20004;-53
2023/12/12 10:55:14;;;;;;;;;;;23.40;35.70;;;;;;5002489;28;19937;-53
2023/12/12 10:57:43;;;;;;;;;;;23.40;35.80;;;;;;5006690;28;20016;-51
2023/12/12 11:00:11;;;;;;;;;;;23.40;35.80;;;;;;5005224;28;19936;-52
2023/12/12 11:02:45;;;;;;;;;;;23.40;35.80;;;;;;5002208;28;19933;-53
2023/12/12 11:05:13;;;;;;;;;;;23.40;36.10;;;;;;5005503;28;20609;-48
2023/12/12 11:07:41;;;;;;;;;;;23.40;36.40;;;;;;4996631;28;20016;-52
2023/12/12 11:10:13;;;;;;;;;;;23.50;36.60;;;;;;5001038;28;19925;-49
2023/12/12 11:12:43;;;;;;;;;;;23.50;36.70;;;;;;4998142;28;19937;-52
2023/12/12 11:15:12;;;;;;;;;;;23.60;36.90;;;;;;5000286;28;19929;-54
2023/12/12 11:17:39;;;;;;;;;;;23.60;37.00;;;;;;5002588;28;19976;-52
2023/12/12 11:20:10;;;;;;;;;;;23.60;37.00;;;;;;5001003;28;20383;-52
2023/12/12 11:22:38;;;;;;;;;;;23.60;37.00;;;;;;5003743;28;19934;-54
2023/12/12 11:25:08;;;;;;;;;;;23.70;37.10;;;;;;5001739;28;19937;-54
2023/12/12 11:27:38;;;;;;;;;;;23.70;37.10;;;;;;5001455;28;21147;-54
2023/12/12 11:30:05;;;;;;;;;;;23.70;37.00;;;;;;5006543;28;19926;-53
2023/12/12 11:32:35;;;;;;;;;;;23.70;37.00;;;;;;5000111;28;19961;-50
2023/12/12 11:35:09;;;;;;;;;;;23.70;37.00;;;;;;5000150;28;19932;-53
2023/12/12 11:37:40;;;;;;;;;;;23.70;37.00;;;;;;4997277;28;20430;-48
2023/12/12 11:40:09;;;;;;;;;;;23.70;36.90;;;;;;4996364;28;20272;-49
2023/12/12 11:42:36;;;;;;;;;;;23.80;36.90;;;;;;4999442;28;20019;-52
2023/12/12 11:45:04;;;;;;;;;;;23.80;36.90;;;;;;4998448;28;19937;-55
2023/12/12 11:47:34;;;;;;;;;;;23.80;36.90;;;;;;5001367;28;19926;-54
2023/12/12 11:50:21;;;;;;;;;;;23.80;36.90;;;;;;4998908;28;19944;-55
2023/12/12 11:52:48;;;;;;;;;;;23.80;36.80;;;;;;4985686;28;19984;-54
2023/12/12 11:55:23;;;;;;;;;;;23.80;36.70;;;;;;4994202;28;19929;-53
2023/12/12 11:57:57;;;;;;;;;;;23.80;36.60;;;;;;4997874;28;19941;-53
2023/12/12 12:00:24;;;;;;;;;;;23.80;36.50;;;;;;4998828;28;19933;-51
2023/12/12 12:02:50;;;;;;;;;;;23.80;36.40;;;;;;5002554;28;19937;-52
2023/12/12 12:05:18;;;;;;;;;;;23.80;36.40;;;;;;5005211;28;19940;-52
2023/12/12 12:07:45;;;;;;;;;;;23.80;36.30;;;;;;5005456;28;19929;-52
2023/12/12 12:10:12;;;;;;;;;;;23.80;36.30;;;;;;5001049;28;19933;-49
2023/12/12 12:12:39;;;;;;;;;;;23.80;36.30;;;;;;5000002;28;20449;-53
2023/12/12 12:15:09;;;;;;;;;;;23.80;36.20;;;;;;5004290;28;19971;-53
2023/12/12 12:17:37;;;;;;;;;;;23.80;36.10;;;;;;5004158;28;19981;-51
2023/12/12 12:20:04;;;;;;;;;;;23.90;36.10;;;;;;5001044;28;19956;-54
2023/12/12 12:22:36;;;;;;;;;;;23.80;36.10;;;;;;5002341;28;19926;-52
2023/12/12 12:25:04;;;;;;;;;;;23.80;36.00;;;;;;4999714;28;19944;-52
2023/12/12 12:27:32;;;;;;;;;;;23.90;36.10;;;;;;5003712;28;19929;-53
2023/12/12 12:30:05;;;;;;;;;;;23.80;36.10;;;;;;5001695;28;19926;-52
2023/12/12 12:32:33;;;;;;;;;;;23.80;36.00;;;;;;5004347;28;19929;-50
2023/12/12 12:35:08;;;;;;;;;;;23.80;36.00;;;;;;5006173;28;20004;-51
2023/12/12 12:37:38;;;;;;;;;;;23.90;35.90;;;;;;5001665;28;19979;-52
2023/12/12 12:40:07;;;;;;;;;;;23.90;35.90;;;;;;4999077;28;19932;-50
2023/12/12 12:42:35;;;;;;;;;;;23.90;35.80;;;;;;4983908;28;19932;-53
2023/12/12 12:45:03;;;;;;;;;;;23.90;35.90;;;;;;4986376;28;20383;-53
2023/12/12 12:47:31;;;;;;;;;;;23.90;35.80;;;;;;5003236;28;19941;-52
2023/12/12 12:49:58;;;;;;;;;;;23.90;35.90;;;;;;5001522;28;19940;-53
2023/12/12 12:52:26;;;;;;;;;;;23.90;36.50;;;;;;4998006;28;19926;-53
2023/12/12 12:54:53;;;;;;;;;;;23.80;36.00;;;;;;4995254;28;19945;-51
2023/12/12 12:57:20;;;;;;;;;;;23.80;36.00;;;;;;4982860;28;20100;-51
2023/12/12 12:59:47;;;;;;;;;;;23.80;36.40;;;;;;4991117;28;20168;-56
2023/12/12 13:02:14;;;;;;;;;;;23.80;36.60;;;;;;4999566;28;19933;-50
2023/12/12 13:04:41;;;;;;;;;;;23.80;36.50;;;;;;4973888;28;19940;-47
2023/12/12 13:07:08;;;;;;;;;;;23.80;36.80;;;;;;4992853;28;20454;-52
2023/12/12 13:09:36;;;;;;;;;;;23.80;37.00;;;;;;4993951;28;19933;-50
2023/12/12 13:12:03;;;;;;;;;;;23.80;37.20;;;;;;4992019;28;20450;-50
2023/12/12 13:14:31;;;;;;;;;;;23.80;37.20;;;;;;4992310;28;19933;-51
2023/12/12 13:16:58;;;;;;;;;;;23.80;37.20;;;;;;4995487;28;19933;-52
2023/12/12 13:19:26;;;;;;;;;;;23.90;37.10;;;;;;4993410;28;19984;-53
2023/12/12 13:21:54;;;;;;;;;;;23.90;37.10;;;;;;4994680;28;19933;-51
2023/12/12 13:24:23;;;;;;;;;;;23.90;37.10;;;;;;4994298;28;19933;-52
2023/12/12 13:26:50;;;;;;;;;;;23.90;37.00;;;;;;4996985;28;19937;-48
2023/12/12 13:29:17;;;;;;;;;;;23.90;36.80;;;;;;4994475;28;20020;-53
2023/12/12 13:31:44;;;;;;;;;;;23.90;36.50;;;;;;4998448;28;19933;-55
2023/12/12 13:34:11;;;;;;;;;;;23.90;36.30;;;;;;4993981;28;19933;-53
2023/12/12 13:36:40;;;;;;;;;;;24.00;36.40;;;;;;4984349;28;19933;-51
2023/12/12 13:39:12;;;;;;;;;;;23.90;36.40;;;;;;4987256;28;19933;-50
2023/12/12 13:41:44;;;;;;;;;;;23.90;36.30;;;;;;5005427;28;20402;-49
2023/12/12 13:44:12;;;;;;;;;;;23.90;36.30;;;;;;5005292;28;19936;-50
2023/12/12 13:46:39;;;;;;;;;;;23.90;36.20;;;;;;4999978;28;19936;-49
2023/12/12 13:49:06;;;;;;;;;;;23.90;36.10;;;;;;5000579;28;19937;-50
2023/12/12 13:51:34;;;;;;;;;;;23.90;36.40;;;;;;5000240;28;20378;-53
2023/12/12 13:54:13;;;;;;;;;;;23.90;36.50;;;;;;4979693;28;20367;-50
2023/12/12 13:56:40;;;;;;;;;;;23.90;36.70;;;;;;5003036;28;19992;-52
2023/12/12 13:59:08;;;;;;;;;;;23.90;36.80;;;;;;5002132;28;20008;-52
2023/12/12 14:01:35;;;;;;;;;;;23.90;36.80;;;;;;4998555;28;19926;-51
2023/12/12 14:04:03;;;;;;;;;;;23.80;36.80;;;;;;5007572;28;19929;-55
2023/12/12 14:06:30;;;;;;;;;;;23.90;36.90;;;;;;5008793;28;19965;-50
2023/12/12 14:08:57;;;;;;;;;;;23.90;37.00;;;;;;4980344;28;19933;-55
2023/12/12 14:11:26;;;;;;;;;;;23.80;37.00;;;;;;5000229;28;20007;-52
2023/12/12 14:13:55;;;;;;;;;;;23.90;37.20;;;;;;5002997;28;19973;-52
2023/12/12 14:16:22;;;;;;;;;;;23.90;37.30;;;;;;5001216;28;20264;-53
2023/12/12 14:18:56;;;;;;;;;;;23.80;37.10;;;;;;5004202;28;19936;-53